« Back
NWS Peachtree City, Ga » Text Product » AHN Terminal Aerodrome Forecast


Printer-friendly Version
Current Version              Previous Versions:   1  2  3  4  5  6  7  8  9  

Terminal Aerodrome Forecast

175
FTUS42 KFFC 310500
TAFAHN
TAF
KAHN 310525Z 3106/0106 07003KT P6SM SCT200
     FM311600 07005KT P6SM SCT040 SCT200
     FM311800 07005KT P6SM BKN050
     FM010000 07008KT P6SM BKN150=



USA.gov is the U.S. government's official web portal to all federal, state and local government web resources and services.